TimeCDT,TemperatureF,Dew PointF,Humidity,Sea Level PressureIn,VisibilityMPH,Wind Direction,Wind SpeedMPH,Gust SpeedMPH,PrecipitationIn,Events,Conditions,WindDirDegrees,DateUTC
12:15 AM,65.3,63.1,93,30.09,10.0,Calm,Calm,-,N/A,,Overcast,0,2013-07-31 05:15:00
12:35 AM,65.1,63.3,94,30.09,10.0,Calm,Calm,-,N/A,,Overcast,0,2013-07-31 05:35:00
12:55 AM,64.9,63.9,96,30.09,10.0,Calm,Calm,-,N/A,,Overcast,0,2013-07-31 05:55:00
1:15 AM,65.5,63.7,94,30.08,10.0,Calm,Calm,-,N/A,,Mostly Cloudy,0,2013-07-31 06:15:00
1:35 AM,65.8,63.1,91,30.07,10.0,SSE,4.6,-,N/A,,Overcast,150,2013-07-31 06:35:00
2:15 AM,65.5,64.2,96,30.08,4.0,SSE,5.8,-,N/A,,Overcast,160,2013-07-31 07:15:00
2:35 AM,64.6,64.6,100,30.07,4.0,SSE,4.6,-,N/A,,Overcast,150,2013-07-31 07:35:00
2:55 AM,64.8,64.8,100,30.07,3.0,SSE,5.8,-,N/A,,Overcast,150,2013-07-31 07:55:00
3:15 AM,64.9,64.9,100,30.06,2.5,SSE,4.6,-,N/A,,Overcast,150,2013-07-31 08:15:00
3:35 AM,64.9,65.1,100,30.05,3.0,SSE,5.8,-,N/A,,Overcast,160,2013-07-31 08:35:00
3:55 AM,-9999,-9999,N/A,30.04,4.0,SSE,4.6,-,N/A,,Overcast,160,2013-07-31 08:55:00
4:15 AM,-9999,-9999,N/A,30.04,3.0,SSE,4.6,-,N/A,,Overcast,160,2013-07-31 09:15:00
4:35 AM,64.9,64.9,100,30.04,4.0,SSE,4.6,-,N/A,,Overcast,160,2013-07-31 09:35:00
4:55 AM,64.9,64.9,100,30.04,3.0,SE,3.5,-,N/A,,Overcast,140,2013-07-31 09:55:00
5:15 AM,64.9,64.9,100,30.05,4.0,SSE,5.8,-,N/A,,Overcast,150,2013-07-31 10:15:00
5:35 AM,64.9,64.9,100,30.04,4.0,SSE,4.6,-,N/A,,Overcast,160,2013-07-31 10:35:00
5:55 AM,64.8,64.8,100,30.04,4.0,South,3.5,-,N/A,,Overcast,170,2013-07-31 10:55:00
6:15 AM,64.8,64.8,100,30.05,5.0,Calm,Calm,-,N/A,,Overcast,0,2013-07-31 11:15:00
6:35 AM,64.8,64.8,100,30.04,5.0,SSE,4.6,-,N/A,,Overcast,160,2013-07-31 11:35:00
6:55 AM,64.6,64.6,100,30.04,4.0,SSE,3.5,-,N/A,,Overcast,160,2013-07-31 11:55:00
7:15 AM,64.6,64.6,100,30.04,4.0,Calm,Calm,-,N/A,,Overcast,0,2013-07-31 12:15:00
7:35 AM,64.6,64.6,100,30.04,2.0,South,3.5,-,N/A,,Overcast,170,2013-07-31 12:35:00
7:55 AM,64.6,64.6,100,30.04,1.8,South,3.5,-,N/A,,Overcast,180,2013-07-31 12:55:00
8:15 AM,64.8,64.8,100,30.04,1.5,South,3.5,-,N/A,,Overcast,170,2013-07-31 13:15:00
8:35 AM,64.8,64.8,100,30.04,2.5,South,3.5,-,N/A,,Overcast,170,2013-07-31 13:35:00
8:55 AM,65.1,65.1,100,30.04,1.8,South,3.5,-,N/A,,Overcast,180,2013-07-31 13:55:00
9:15 AM,65.3,65.3,100,30.03,1.8,South,4.6,-,N/A,,Overcast,180,2013-07-31 14:15:00
9:35 AM,65.3,65.3,100,30.03,1.8,South,3.5,-,N/A,,Overcast,170,2013-07-31 14:35:00
9:55 AM,65.5,65.5,100,30.02,3.0,South,4.6,-,N/A,,Overcast,190,2013-07-31 14:55:00
10:15 AM,65.8,65.8,100,30.03,4.0,SSW,3.5,-,N/A,,Overcast,200,2013-07-31 15:15:00
10:35 AM,66.2,66.2,100,30.02,5.0,South,4.6,-,N/A,,Overcast,180,2013-07-31 15:35:00
10:55 AM,66.6,66.6,100,30.02,10.0,South,5.8,-,N/A,,Overcast,190,2013-07-31 15:55:00
11:15 AM,66.9,66.9,100,30.02,7.0,SW,4.6,-,N/A,,Overcast,220,2013-07-31 16:15:00
11:35 AM,67.1,67.3,100,30.01,2.5,SSW,3.5,-,N/A,,Overcast,210,2013-07-31 16:35:00
11:55 AM,67.5,67.6,100,30.01,3.0,SW,4.6,-,N/A,,Overcast,220,2013-07-31 16:55:00
12:15 PM,67.6,67.8,100,30.01,1.8,SW,4.6,-,N/A,,Overcast,220,2013-07-31 17:15:00
12:35 PM,67.6,68.0,100,30.01,2.5,SW,3.5,-,N/A,,Overcast,230,2013-07-31 17:35:00
12:55 PM,68.2,68.4,100,30.00,10.0,SSW,4.6,-,N/A,,Overcast,200,2013-07-31 17:55:00
1:15 PM,68.5,68.7,100,30.00,7.0,SW,5.8,-,N/A,,Overcast,230,2013-07-31 18:15:00
1:35 PM,68.9,68.7,99,29.99,7.0,Calm,Calm,-,N/A,,Overcast,0,2013-07-31 18:35:00
1:55 PM,69.1,68.4,98,29.99,7.0,WSW,3.5,-,N/A,,Overcast,250,2013-07-31 18:55:00
2:15 PM,69.4,68.5,97,29.99,7.0,West,3.5,-,N/A,,Overcast,280,2013-07-31 19:15:00
2:35 PM,69.4,68.5,97,29.99,10.0,West,4.6,-,N/A,,Overcast,260,2013-07-31 19:35:00
2:55 PM,70.0,68.7,96,29.99,10.0,West,3.5,-,N/A,,Overcast,270,2013-07-31 19:55:00
3:15 PM,70.2,68.5,95,29.98,10.0,Calm,Calm,-,N/A,,Overcast,0,2013-07-31 20:15:00
3:35 PM,71.1,69.1,93,29.98,10.0,WSW,4.6,-,N/A,,Overcast,250,2013-07-31 20:35:00
3:55 PM,70.5,68.9,95,29.98,10.0,NW,4.6,-,N/A,,Overcast,310,2013-07-31 20:55:00
4:15 PM,70.2,68.9,96,29.97,7.0,NW,6.9,-,N/A,,Overcast,320,2013-07-31 21:15:00
4:35 PM,70.2,68.7,95,29.97,5.0,NW,6.9,-,N/A,,Overcast,320,2013-07-31 21:35:00
4:55 PM,70.7,68.9,94,29.97,5.0,NNW,8.1,-,N/A,,Overcast,330,2013-07-31 21:55:00
5:15 PM,69.8,68.7,96,29.97,2.5,NW,12.7,20.7,N/A,,Overcast,320,2013-07-31 22:15:00
5:35 PM,69.1,68.0,96,29.96,3.0,NW,9.2,-,N/A,,Overcast,310,2013-07-31 22:35:00
5:55 PM,68.7,67.5,96,29.96,2.0,NW,9.2,-,N/A,,Overcast,320,2013-07-31 22:55:00
6:15 PM,67.6,67.5,99,29.96,1.8,NW,5.8,-,N/A,,Overcast,310,2013-07-31 23:15:00
6:35 PM,68.0,67.6,99,29.96,3.0,NW,5.8,-,N/A,,Overcast,310,2013-07-31 23:35:00
6:55 PM,68.0,67.3,98,29.96,3.0,NW,5.8,-,N/A,,Overcast,310,2013-07-31 23:55:00
7:15 PM,67.6,67.1,98,29.96,3.0,NW,5.8,-,N/A,,Overcast,320,2013-08-01 00:15:00
7:35 PM,67.5,66.6,97,29.96,4.0,NNW,5.8,-,N/A,,Overcast,340,2013-08-01 00:35:00
7:55 PM,67.3,66.2,96,29.97,4.0,NNW,3.5,-,N/A,,Overcast,330,2013-08-01 00:55:00
8:15 PM,66.9,66.0,97,29.97,5.0,NNW,3.5,-,N/A,,Overcast,330,2013-08-01 01:15:00
8:35 PM,65.7,65.1,98,29.96,4.0,Calm,Calm,-,N/A,,Scattered Clouds,0,2013-08-01 01:35:00
8:55 PM,64.4,64.2,99,29.97,3.0,Calm,Calm,-,N/A,,Clear,0,2013-08-01 01:55:00
9:15 PM,63.5,63.5,100,29.98,2.0,Calm,Calm,-,N/A,,Clear,0,2013-08-01 02:15:00
9:55 PM,61.7,61.7,100,29.97,0.5,Calm,Calm,-,N/A,,Unknown,0,2013-08-01 02:55:00
10:15 PM,60.6,60.8,100,29.98,0.8,West,3.5,-,N/A,,Unknown,260,2013-08-01 03:15:00
10:35 PM,60.1,60.1,100,29.98,1.2,West,4.6,-,N/A,,Unknown,260,2013-08-01 03:35:00
10:55 PM,61.2,61.2,100,29.98,1.8,West,4.6,-,N/A,,Mostly Cloudy,280,2013-08-01 03:55:00
11:15 PM,62.1,62.1,100,29.97,2.5,SW,4.6,-,N/A,,Scattered Clouds,220,2013-08-01 04:15:00
11:35 PM,62.2,62.2,100,29.97,1.5,SW,3.5,-,N/A,,Scattered Clouds,220,2013-08-01 04:35:00
11:55 PM,61.9,61.9,100,29.97,1.8,Calm,Calm,-,N/A,,Mostly Cloudy,0,2013-08-01 04:55:00